createdAt,value
2018-12-14T00:01:18.020Z,2.26
2018-12-14T00:03:47.352Z,2.30
2018-12-14T00:06:16.829Z,2.34
2018-12-14T00:08:46.220Z,2.24
2018-12-14T00:11:15.593Z,2.19
2018-12-14T00:13:44.858Z,2.29
2018-12-14T00:16:14.295Z,2.20
2018-12-14T00:18:43.570Z,2.17
2018-12-14T00:21:13.021Z,2.26
2018-12-14T00:23:42.253Z,2.23
2018-12-14T00:26:11.560Z,2.05
2018-12-14T00:28:40.752Z,2.23
2018-12-14T00:31:10.028Z,2.29
2018-12-14T00:33:39.343Z,2.19
2018-12-14T00:36:08.714Z,2.25
2018-12-14T00:38:38.387Z,2.19
2018-12-14T00:41:07.664Z,2.19
2018-12-14T00:43:36.931Z,2.21
2018-12-14T00:46:06.250Z,2.24
2018-12-14T00:48:35.637Z,2.46
2018-12-14T00:51:05.012Z,2.43
2018-12-14T00:53:34.117Z,2.24
2018-12-14T00:56:03.600Z,2.12
2018-12-14T00:58:32.806Z,2.16
2018-12-14T01:01:01.955Z,2.22
2018-12-14T01:03:31.255Z,2.22
2018-12-14T01:06:00.373Z,2.24
2018-12-14T01:08:29.944Z,2.21
2018-12-14T01:10:59.043Z,2.18
2018-12-14T01:13:28.231Z,2.41
2018-12-14T01:15:57.587Z,2.44
2018-12-14T01:18:26.923Z,2.58
2018-12-14T01:20:56.041Z,2.46
2018-12-14T01:23:25.360Z,2.87
2018-12-14T01:25:54.527Z,2.78
2018-12-14T01:28:25.017Z,2.94
2018-12-14T01:30:54.391Z,2.65
2018-12-14T01:33:23.666Z,2.87
2018-12-14T01:35:52.860Z,2.71
2018-12-14T01:38:22.247Z,2.66
2018-12-14T01:40:51.427Z,2.60
2018-12-14T01:43:20.564Z,2.52
2018-12-14T01:45:49.954Z,2.57
2018-12-14T01:48:19.425Z,2.39
2018-12-14T01:50:48.559Z,2.46
2018-12-14T01:53:18.002Z,2.54
2018-12-14T01:55:47.256Z,2.56
2018-12-14T01:58:16.511Z,2.71
2018-12-14T02:00:45.893Z,2.84
2018-12-14T02:03:15.188Z,2.60
2018-12-14T02:05:44.565Z,2.80
2018-12-14T02:08:13.911Z,2.56
2018-12-14T02:10:43.094Z,2.60
2018-12-14T02:13:12.397Z,2.50
2018-12-14T02:15:41.562Z,2.59
2018-12-14T02:18:11.139Z,2.79
2018-12-14T02:20:40.127Z,2.94
2018-12-14T02:23:09.563Z,2.99
2018-12-14T02:25:38.730Z,2.54
2018-12-14T02:28:07.991Z,2.75
2018-12-14T02:30:44.102Z,2.93
2018-12-14T02:33:13.390Z,3.23
2018-12-14T02:35:42.725Z,3.17
2018-12-14T02:38:11.867Z,3.21
2018-12-14T02:40:41.298Z,3.05
2018-12-14T02:43:10.556Z,3.04
2018-12-14T02:45:39.856Z,3.10
2018-12-14T02:48:09.057Z,3.08
2018-12-14T02:50:38.325Z,3.21
2018-12-14T02:53:07.655Z,3.36
2018-12-14T02:55:36.916Z,3.54
2018-12-14T02:58:06.408Z,3.63
2018-12-14T03:00:35.573Z,3.52
2018-12-14T03:03:04.962Z,3.63
2018-12-14T03:05:34.284Z,3.56
2018-12-14T03:08:03.521Z,3.05
2018-12-14T03:10:32.667Z,3.25
2018-12-14T03:13:01.923Z,3.20
2018-12-14T03:15:31.052Z,2.87
2018-12-14T03:18:00.204Z,2.92
2018-12-14T03:20:29.632Z,3.03
2018-12-14T03:22:58.752Z,2.76
2018-12-14T03:25:28.091Z,2.87
2018-12-14T03:27:57.325Z,3.03
2018-12-14T03:30:26.605Z,2.70
2018-12-14T03:32:56.496Z,2.97
2018-12-14T03:35:26.036Z,2.92
2018-12-14T03:37:55.141Z,3.13
2018-12-14T03:40:24.319Z,2.96
2018-12-14T03:42:53.634Z,2.87
2018-12-14T03:45:22.880Z,2.65
2018-12-14T03:47:52.032Z,2.91
2018-12-14T03:50:21.464Z,2.89
2018-12-14T03:52:50.840Z,2.78
2018-12-14T03:55:20.411Z,2.94
2018-12-14T03:57:49.644Z,2.58
2018-12-14T04:00:19.105Z,2.57
2018-12-14T04:02:48.993Z,2.58
2018-12-14T04:05:18.516Z,2.74
2018-12-14T04:07:47.736Z,2.77
2018-12-14T04:10:16.999Z,2.64
2018-12-14T04:12:46.711Z,2.59
2018-12-14T04:15:16.188Z,2.77
2018-12-14T04:17:45.405Z,2.75
2018-12-14T04:20:14.644Z,2.85
2018-12-14T04:22:44.227Z,2.72
2018-12-14T04:25:13.580Z,2.53
2018-12-14T04:27:42.843Z,2.98
2018-12-14T04:30:12.082Z,2.98
2018-12-14T04:32:41.195Z,2.76
2018-12-14T04:35:10.249Z,2.90
2018-12-14T04:37:39.844Z,3.06
2018-12-14T04:40:09.168Z,3.17
2018-12-14T04:42:38.556Z,2.97
2018-12-14T04:45:07.906Z,2.63
2018-12-14T04:47:37.317Z,2.67
2018-12-14T04:50:06.588Z,2.82
2018-12-14T04:52:35.827Z,2.83
2018-12-14T04:55:05.490Z,2.89
2018-12-14T04:57:34.756Z,3.08
2018-12-14T05:00:03.983Z,2.80
2018-12-14T05:02:33.222Z,2.80
2018-12-14T05:05:02.561Z,3.03
2018-12-14T05:07:31.760Z,3.07
2018-12-14T05:10:01.083Z,2.80
2018-12-14T05:12:30.530Z,2.73
2018-12-14T05:14:59.696Z,2.88
2018-12-14T05:17:29.020Z,2.90
2018-12-14T05:19:58.174Z,2.82
2018-12-14T05:22:27.331Z,2.88
2018-12-14T05:24:56.488Z,2.74
2018-12-14T05:27:25.604Z,2.83
2018-12-14T05:29:55.179Z,2.40
2018-12-14T05:32:27.644Z,2.81
2018-12-14T05:34:56.906Z,2.83
2018-12-14T05:37:26.211Z,2.55
2018-12-14T05:39:55.595Z,2.63
2018-12-14T05:42:24.884Z,2.83
2018-12-14T05:44:54.150Z,3.04
2018-12-14T05:47:23.985Z,3.21
2018-12-14T05:49:53.351Z,3.13
2018-12-14T05:52:22.581Z,2.98
2018-12-14T05:54:51.987Z,2.92
2018-12-14T05:57:21.729Z,3.06
2018-12-14T05:59:51.212Z,3.05
2018-12-14T06:02:20.736Z,2.53
2018-12-14T06:04:50.042Z,2.55
2018-12-14T06:07:19.093Z,2.23
2018-12-14T06:09:48.489Z,1.99
2018-12-14T06:12:17.732Z,2.38
2018-12-14T06:14:47.139Z,2.45
2018-12-14T06:17:16.390Z,2.39
2018-12-14T06:19:45.700Z,2.55
2018-12-14T06:22:14.968Z,2.61
2018-12-14T06:24:44.294Z,2.63
2018-12-14T06:27:13.586Z,2.89
2018-12-14T06:29:43.148Z,2.93
2018-12-14T06:32:12.523Z,2.77
2018-12-14T06:34:42.023Z,2.85
2018-12-14T06:37:11.477Z,2.98
2018-12-14T06:39:41.016Z,3.03
2018-12-14T06:42:10.747Z,3.06
2018-12-14T06:44:40.087Z,2.93
2018-12-14T06:47:09.683Z,2.91
2018-12-14T06:49:39.090Z,2.70
2018-12-14T06:52:08.565Z,2.65
2018-12-14T06:54:37.956Z,2.91
2018-12-14T06:57:07.504Z,2.97
2018-12-14T06:59:37.076Z,3.14
2018-12-14T07:02:06.447Z,3.05
2018-12-14T07:04:35.976Z,2.90
2018-12-14T07:07:05.141Z,2.94
2018-12-14T07:09:34.827Z,2.81
2018-12-14T07:12:04.236Z,2.51
2018-12-14T07:14:33.556Z,2.89
2018-12-14T07:17:02.888Z,2.68
2018-12-14T07:19:32.176Z,2.69
2018-12-14T07:22:01.528Z,2.73
2018-12-14T07:24:30.839Z,2.76
2018-12-14T07:27:00.761Z,2.88
2018-12-14T07:29:29.940Z,2.85
2018-12-14T07:31:59.416Z,2.71
2018-12-14T07:34:28.485Z,3.02
2018-12-14T07:36:57.840Z,2.59
2018-12-14T07:39:27.247Z,2.84
2018-12-14T07:41:56.471Z,2.88
2018-12-14T07:44:25.891Z,2.52
2018-12-14T07:46:55.527Z,2.66
2018-12-14T07:49:25.169Z,2.79
2018-12-14T07:51:55.108Z,2.90
2018-12-14T07:54:24.318Z,2.87
2018-12-14T07:56:53.588Z,2.79
2018-12-14T07:59:23.095Z,2.73
2018-12-14T08:01:52.514Z,2.68
2018-12-14T08:04:21.887Z,2.54
2018-12-14T08:06:51.191Z,3.00
2018-12-14T08:09:20.649Z,2.74
2018-12-14T08:11:50.319Z,2.96
2018-12-14T08:14:19.705Z,3.15
2018-12-14T08:16:49.648Z,3.16
2018-12-14T08:19:19.036Z,2.74
2018-12-14T08:21:49.044Z,3.10
2018-12-14T08:24:18.335Z,3.07
2018-12-14T08:26:48.241Z,2.96
2018-12-14T08:29:17.763Z,2.80
2018-12-14T08:31:48.019Z,2.86
2018-12-14T08:34:18.043Z,2.48
2018-12-14T08:36:48.350Z,2.44
2018-12-14T08:39:18.245Z,2.60
2018-12-14T08:41:47.641Z,2.82
2018-12-14T08:44:17.160Z,2.89
2018-12-14T08:46:46.667Z,2.59
2018-12-14T08:49:16.064Z,2.79
2018-12-14T08:51:45.347Z,2.71
2018-12-14T08:54:14.582Z,2.77
2018-12-14T08:56:44.349Z,2.85
2018-12-14T08:59:13.821Z,2.90
2018-12-14T09:01:43.269Z,2.90
2018-12-14T09:04:14.860Z,2.96
2018-12-14T09:06:43.685Z,2.76
2018-12-14T09:09:13.022Z,2.89
2018-12-14T09:11:42.276Z,3.12
2018-12-14T09:14:11.740Z,2.87
2018-12-14T09:16:41.184Z,2.99
2018-12-14T09:19:10.374Z,3.23
2018-12-14T09:21:39.635Z,3.28
2018-12-14T09:24:08.926Z,2.84
2018-12-14T09:26:38.075Z,2.73
2018-12-14T09:29:07.944Z,2.63
2018-12-14T09:31:37.047Z,2.46
2018-12-14T09:34:06.357Z,2.46
2018-12-14T09:36:35.520Z,2.52
2018-12-14T09:39:06.067Z,2.88
2018-12-14T09:41:35.125Z,3.08
2018-12-14T09:44:05.712Z,3.06
2018-12-14T09:46:37.187Z,3.07
2018-12-14T09:49:06.115Z,2.97
2018-12-14T09:51:35.491Z,2.75
2018-12-14T09:54:04.917Z,2.90
2018-12-14T09:56:34.256Z,2.94
2018-12-14T09:59:03.587Z,2.51
2018-12-14T10:01:32.949Z,2.49
2018-12-14T10:04:02.161Z,2.69
2018-12-14T10:06:31.476Z,2.69
2018-12-14T10:09:00.857Z,3.08
2018-12-14T10:11:30.132Z,3.13
2018-12-14T10:14:00.944Z,3.08
2018-12-14T10:16:30.587Z,3.20
2018-12-14T10:19:00.187Z,2.68
2018-12-14T10:21:29.539Z,2.62
2018-12-14T10:23:59.612Z,2.46
2018-12-14T10:26:28.717Z,2.64
2018-12-14T10:28:58.793Z,2.80
2018-12-14T10:31:28.292Z,2.64
2018-12-14T10:33:57.976Z,2.71
2018-12-14T10:36:27.080Z,2.64
2018-12-14T10:38:56.546Z,2.53
2018-12-14T10:41:25.928Z,2.74
2018-12-14T10:43:55.444Z,2.53
2018-12-14T10:46:24.607Z,2.56
2018-12-14T10:48:53.908Z,2.67
2018-12-14T10:51:23.153Z,2.80
2018-12-14T10:53:52.337Z,2.53
2018-12-14T10:56:21.569Z,2.59
2018-12-14T10:58:51.162Z,2.67
2018-12-14T11:01:25.487Z,2.62
2018-12-14T11:03:55.035Z,2.52
2018-12-14T11:06:25.423Z,2.66
2018-12-14T11:08:54.959Z,2.35
2018-12-14T11:11:24.923Z,2.35
2018-12-14T11:13:54.218Z,2.35
2018-12-14T11:16:23.420Z,2.35
2018-12-14T11:18:52.600Z,2.35
2018-12-14T11:21:22.075Z,2.36
2018-12-14T11:23:51.451Z,2.32
2018-12-14T11:26:20.852Z,2.40
2018-12-14T11:28:50.128Z,2.36
2018-12-14T11:31:19.430Z,2.39
2018-12-14T11:33:48.835Z,2.46
2018-12-14T11:36:18.228Z,2.35
2018-12-14T11:38:47.643Z,2.25
2018-12-14T11:41:18.619Z,2.35
2018-12-14T11:43:48.056Z,2.37
2018-12-14T11:46:17.291Z,2.40
2018-12-14T11:48:46.632Z,2.44
2018-12-14T11:51:19.696Z,2.47
2018-12-14T11:53:49.047Z,2.51
2018-12-14T11:56:18.424Z,2.54
2018-12-14T11:58:47.793Z,2.55
2018-12-14T12:01:17.094Z,2.38
2018-12-14T12:03:46.466Z,2.37
2018-12-14T12:06:15.691Z,2.34
2018-12-14T12:08:44.967Z,2.36
2018-12-14T12:11:14.327Z,2.41
2018-12-14T12:13:43.616Z,2.42
2018-12-14T12:16:13.028Z,2.26
2018-12-14T12:18:42.352Z,2.42
2018-12-14T12:21:11.622Z,2.26
2018-12-14T12:23:41.048Z,2.38
2018-12-14T12:26:10.426Z,2.51
2018-12-14T12:28:39.820Z,2.54
2018-12-14T12:31:09.229Z,2.52
2018-12-14T12:33:38.525Z,2.38
2018-12-14T12:36:07.950Z,2.27
2018-12-14T12:38:38.318Z,2.31
2018-12-14T12:41:07.772Z,2.29
2018-12-14T12:43:36.907Z,2.29
2018-12-14T12:46:06.192Z,2.46
2018-12-14T12:48:35.787Z,2.48
2018-12-14T12:51:05.128Z,2.42
2018-12-14T12:53:34.419Z,2.49
2018-12-14T12:56:03.933Z,2.56
2018-12-14T12:58:33.243Z,2.30
2018-12-14T13:01:02.749Z,2.32
2018-12-14T13:03:32.173Z,2.33
2018-12-14T13:06:01.503Z,2.25
2018-12-14T13:08:30.880Z,2.33
2018-12-14T13:11:00.124Z,2.38
2018-12-14T13:13:29.332Z,2.75
2018-12-14T13:15:58.504Z,2.36
2018-12-14T13:18:27.823Z,2.37
2018-12-14T13:20:56.922Z,2.49
2018-12-14T13:23:26.057Z,2.52
2018-12-14T13:25:55.334Z,2.46
2018-12-14T13:28:24.612Z,2.50
2018-12-14T13:30:53.710Z,2.62
2018-12-14T13:33:22.856Z,2.38
2018-12-14T13:35:52.469Z,2.33
2018-12-14T13:38:21.980Z,2.48
2018-12-14T13:40:51.255Z,2.53
2018-12-14T13:43:20.578Z,2.59
2018-12-14T13:45:49.912Z,2.51
2018-12-14T13:48:19.114Z,2.29
2018-12-14T13:50:48.320Z,2.26
2018-12-14T13:53:17.793Z,2.57
2018-12-14T13:55:47.076Z,2.25
2018-12-14T13:58:16.424Z,2.06
2018-12-14T14:00:45.765Z,2.11
2018-12-14T14:03:15.244Z,2.15
2018-12-14T14:05:44.605Z,2.15
2018-12-14T14:08:13.807Z,2.05
2018-12-14T14:10:43.174Z,2.08
2018-12-14T14:13:12.349Z,2.01
2018-12-14T14:15:41.688Z,2.24
2018-12-14T14:18:10.964Z,2.01
2018-12-14T14:20:40.159Z,2.09
2018-12-14T14:23:09.555Z,2.08
2018-12-14T14:25:39.129Z,2.02
2018-12-14T14:28:08.271Z,2.15
2018-12-14T14:30:37.611Z,2.11
2018-12-14T14:33:06.936Z,2.22
2018-12-14T14:35:36.282Z,2.37
2018-12-14T14:38:05.548Z,2.37
2018-12-14T14:40:34.712Z,2.37
2018-12-14T14:43:04.069Z,2.36
2018-12-14T14:45:33.297Z,2.27
2018-12-14T14:48:02.705Z,2.06
2018-12-14T14:50:31.864Z,2.04
2018-12-14T14:53:00.972Z,2.11
2018-12-14T14:55:30.057Z,2.01
2018-12-14T14:57:59.279Z,1.98
2018-12-14T15:00:31.014Z,2.05
2018-12-14T15:03:00.248Z,2.07
2018-12-14T15:05:29.405Z,2.18
2018-12-14T15:07:58.679Z,2.13
2018-12-14T15:10:27.909Z,2.30
2018-12-14T15:12:57.103Z,2.40
2018-12-14T15:15:27.320Z,2.60
2018-12-14T15:17:56.889Z,2.17
2018-12-14T15:20:26.235Z,1.95
2018-12-14T15:22:55.664Z,2.00
2018-12-14T15:25:25.033Z,2.22
2018-12-14T15:27:54.372Z,2.45
2018-12-14T15:30:23.495Z,2.39
2018-12-14T15:32:52.912Z,2.10
2018-12-14T15:35:22.285Z,2.29
2018-12-14T15:37:51.515Z,2.28
2018-12-14T15:40:20.846Z,2.09
2018-12-14T15:42:50.188Z,2.14
2018-12-14T15:45:19.795Z,2.09
2018-12-14T15:47:49.772Z,2.08
2018-12-14T15:50:19.263Z,1.95
2018-12-14T15:52:48.651Z,2.20
2018-12-14T15:55:18.197Z,2.20
2018-12-14T15:57:47.580Z,2.04
2018-12-14T16:00:17.116Z,1.92
2018-12-14T16:02:49.675Z,1.99
2018-12-14T16:05:18.973Z,1.95
2018-12-14T16:07:48.282Z,1.97
2018-12-14T16:10:17.744Z,2.16
2018-12-14T16:12:46.974Z,2.28
2018-12-14T16:15:20.014Z,2.16
2018-12-14T16:17:47.764Z,2.14
2018-12-14T16:20:17.206Z,2.24
2018-12-14T16:22:46.326Z,2.39
2018-12-14T16:25:15.593Z,2.63
2018-12-14T16:27:44.978Z,2.75
2018-12-14T16:30:14.324Z,2.68
2018-12-14T16:32:43.901Z,2.57
2018-12-14T16:35:13.128Z,2.41
2018-12-14T16:37:42.450Z,2.43
2018-12-14T16:40:11.314Z,2.67
2018-12-14T16:42:40.893Z,2.19
2018-12-14T16:45:10.221Z,2.21
2018-12-14T16:47:39.720Z,2.17
2018-12-14T16:50:09.195Z,2.40
2018-12-14T16:52:38.568Z,2.35
2018-12-14T16:55:08.731Z,2.26
2018-12-14T16:57:38.076Z,2.50
2018-12-14T17:00:08.487Z,2.56
2018-12-14T17:02:37.666Z,2.32
2018-12-14T17:05:07.353Z,2.15
2018-12-14T17:07:36.852Z,2.32
2018-12-14T17:10:06.346Z,2.22
2018-12-14T17:12:35.517Z,2.06
2018-12-14T17:15:04.925Z,2.09
2018-12-14T17:17:34.227Z,2.14
2018-12-14T17:20:03.435Z,2.23
2018-12-14T17:22:32.739Z,2.37
2018-12-14T17:25:02.434Z,2.39
2018-12-14T17:27:32.103Z,2.41
2018-12-14T17:30:02.065Z,2.13
2018-12-14T17:32:31.869Z,2.26
2018-12-14T17:35:01.266Z,2.07
2018-12-14T17:37:30.583Z,1.91
2018-12-14T17:40:00.006Z,2.01
2018-12-14T17:42:29.563Z,2.02
2018-12-14T17:44:59.644Z,1.93
2018-12-14T17:47:29.668Z,1.92
2018-12-14T17:49:59.122Z,2.11
2018-12-14T17:52:28.811Z,1.90
2018-12-14T17:54:58.643Z,1.91
2018-12-14T17:57:28.112Z,1.99
2018-12-14T17:59:57.759Z,1.97
2018-12-14T18:02:27.157Z,1.99
2018-12-14T18:04:56.403Z,2.26
2018-12-14T18:07:25.654Z,2.23
2018-12-14T18:09:54.875Z,2.12
2018-12-14T18:12:24.380Z,2.13
2018-12-14T18:14:54.116Z,1.93
2018-12-14T18:17:23.631Z,2.14
2018-12-14T18:19:53.655Z,2.55
2018-12-14T18:22:23.608Z,2.64
2018-12-14T18:24:53.543Z,2.24
2018-12-14T18:27:22.926Z,2.02
2018-12-14T18:29:52.791Z,2.06
2018-12-14T18:32:22.592Z,2.43
2018-12-14T18:34:52.167Z,2.32
2018-12-14T18:37:21.671Z,2.37
2018-12-14T18:39:51.580Z,2.73
2018-12-14T18:42:21.391Z,2.92
2018-12-14T18:44:50.731Z,2.59
2018-12-14T18:47:20.199Z,2.82
2018-12-14T18:49:49.607Z,3.09
2018-12-14T18:52:19.021Z,2.68
2018-12-14T18:54:48.471Z,2.23
2018-12-14T18:57:17.724Z,1.98
2018-12-14T18:59:47.220Z,2.02
2018-12-14T19:02:17.604Z,2.00
2018-12-14T19:04:46.769Z,2.07
2018-12-14T19:07:17.045Z,2.13
2018-12-14T19:09:46.807Z,2.33
2018-12-14T19:12:16.221Z,2.55
2018-12-14T19:14:45.496Z,2.37
2018-12-14T19:17:14.889Z,2.70
2018-12-14T19:19:44.253Z,2.65
2018-12-14T19:22:13.419Z,2.79
2018-12-14T19:24:42.674Z,3.12
2018-12-14T19:27:11.989Z,2.59
2018-12-14T19:29:41.683Z,2.76
2018-12-14T19:32:11.454Z,2.56
2018-12-14T19:34:41.328Z,2.33
2018-12-14T19:37:10.914Z,2.63
2018-12-14T19:39:40.221Z,2.92
2018-12-14T19:42:09.694Z,3.31
2018-12-14T19:44:39.244Z,3.19
2018-12-14T19:47:08.821Z,3.10
2018-12-14T19:49:38.419Z,3.47
2018-12-14T19:52:08.009Z,3.51
2018-12-14T19:54:37.308Z,2.87
2018-12-14T19:57:06.583Z,2.73
2018-12-14T19:59:35.840Z,2.72
2018-12-14T20:02:05.138Z,3.01
2018-12-14T20:04:34.604Z,3.47
2018-12-14T20:07:03.856Z,3.83
2018-12-14T20:09:33.332Z,3.97
2018-12-14T20:12:02.799Z,4.03
2018-12-14T20:14:32.012Z,4.07
2018-12-14T20:17:01.357Z,3.93
2018-12-14T20:19:30.649Z,3.91
2018-12-14T20:21:59.896Z,3.87
2018-12-14T20:24:29.432Z,3.70
2018-12-14T20:26:59.036Z,3.57
2018-12-14T20:29:28.185Z,3.51
2018-12-14T20:31:57.784Z,3.62
2018-12-14T20:34:27.252Z,3.50
2018-12-14T20:36:56.531Z,3.35
2018-12-14T20:39:25.980Z,3.26
2018-12-14T20:41:55.188Z,2.76
2018-12-14T20:44:26.531Z,3.10
2018-12-14T20:46:55.748Z,3.52
2018-12-14T20:49:25.179Z,3.76
2018-12-14T20:51:54.300Z,3.91
2018-12-14T20:54:23.931Z,3.84
2018-12-14T20:56:53.152Z,3.76
2018-12-14T20:59:22.378Z,3.64
2018-12-14T21:01:51.564Z,3.52
2018-12-14T21:04:20.869Z,3.56
2018-12-14T21:06:50.209Z,3.72
2018-12-14T21:09:19.434Z,3.89
2018-12-14T21:11:48.816Z,4.02
2018-12-14T21:14:18.347Z,3.98
2018-12-14T21:16:47.969Z,4.06
2018-12-14T21:19:17.192Z,4.05
2018-12-14T21:21:46.432Z,3.83
2018-12-14T21:24:15.641Z,3.84
2018-12-14T21:26:44.896Z,3.83
2018-12-14T21:29:16.105Z,3.87
2018-12-14T21:31:45.837Z,3.73
2018-12-14T21:34:15.412Z,3.57
2018-12-14T21:36:44.786Z,3.64
2018-12-14T21:39:14.256Z,3.56
2018-12-14T21:41:43.477Z,3.20
2018-12-14T21:44:12.824Z,3.26
2018-12-14T21:46:42.233Z,3.43
2018-12-14T21:49:11.256Z,3.68
2018-12-14T21:51:40.598Z,3.54
2018-12-14T21:54:10.029Z,3.65
2018-12-14T21:56:39.334Z,3.72
2018-12-14T21:59:08.517Z,3.42
2018-12-14T22:01:37.967Z,3.40
2018-12-14T22:04:07.298Z,3.40
2018-12-14T22:06:36.568Z,3.40
2018-12-14T22:09:09.568Z,3.55
2018-12-14T22:11:38.860Z,3.63
2018-12-14T22:14:08.025Z,3.74
2018-12-14T22:16:39.365Z,3.61
2018-12-14T22:19:08.813Z,3.53
2018-12-14T22:21:38.160Z,3.54
2018-12-14T22:24:07.312Z,3.70
2018-12-14T22:26:36.656Z,3.82
2018-12-14T22:29:05.752Z,3.96
2018-12-14T22:31:35.239Z,3.82
2018-12-14T22:34:04.548Z,3.49
2018-12-14T22:36:33.784Z,3.29
2018-12-14T22:39:04.140Z,3.28
2018-12-14T22:41:33.539Z,3.28
2018-12-14T22:44:02.685Z,3.50
2018-12-14T22:46:32.131Z,3.55
2018-12-14T22:49:01.791Z,3.43
2018-12-14T22:51:30.937Z,3.08
2018-12-14T22:54:00.236Z,3.03
2018-12-14T22:56:29.428Z,2.66
2018-12-14T22:58:58.759Z,2.68
2018-12-14T23:01:28.139Z,2.62
2018-12-14T23:03:57.295Z,3.04
2018-12-14T23:06:26.607Z,3.08
2018-12-14T23:08:55.939Z,2.99
2018-12-14T23:11:25.202Z,2.67
2018-12-14T23:13:54.342Z,2.94
2018-12-14T23:16:23.688Z,2.81
2018-12-14T23:18:52.896Z,2.66
2018-12-14T23:21:22.154Z,2.30
2018-12-14T23:23:51.603Z,2.16
2018-12-14T23:26:20.851Z,2.04
2018-12-14T23:28:50.405Z,2.06
2018-12-14T23:31:19.940Z,2.13
2018-12-14T23:33:49.360Z,2.02
2018-12-14T23:36:18.617Z,2.00
2018-12-14T23:38:48.228Z,1.98
2018-12-14T23:41:17.382Z,1.93
2018-12-14T23:43:46.744Z,1.85
2018-12-14T23:46:16.199Z,2.09
2018-12-14T23:48:45.527Z,2.11
2018-12-14T23:51:15.138Z,2.00
2018-12-14T23:53:45.220Z,2.05
2018-12-14T23:56:14.297Z,2.08
2018-12-14T23:58:44.220Z,2.06
